Time;durP1;ratioP1;P1;durP2;ratioP2;P2;SDS_P1;SDS_P2;PMS_P1;PMS_P2;Temp;Humidity;BMP_temperature;BMP_pressure;BME280_temperature;BME280_humidity;BME280_pressure;Samples;Min_cycle;Max_cycle;Signal;HPM_P1;HPM_P2
2022/09/06 00:00:12;;;;;;;5.28;4.70;;;20.70;99.90;;;;;;4792528;29;20063;-82
2022/09/06 00:02:39;;;;;;;4.93;4.05;;;20.70;99.90;;;;;;4808624;29;20047;-82
2022/09/06 00:05:05;;;;;;;7.35;4.72;;;20.70;99.90;;;;;;4792343;29;20050;-82
2022/09/06 00:07:31;;;;;;;5.95;4.70;;;20.60;99.90;;;;;;4792346;29;20122;-82
2022/09/06 00:09:57;;;;;;;8.38;4.60;;;20.60;99.90;;;;;;4808347;29;20046;-83
2022/09/06 00:12:24;;;;;;;7.35;4.82;;;20.60;99.90;;;;;;4792128;29;20059;-82
2022/09/06 00:14:50;;;;;;;6.13;4.55;;;20.60;99.90;;;;;;4792076;29;20059;-82
2022/09/06 00:17:17;;;;;;;8.85;4.75;;;20.50;99.90;;;;;;4777204;29;20061;-82
2022/09/06 00:19:42;;;;;;;5.50;4.30;;;20.50;99.90;;;;;;4808190;29;20043;-82
2022/09/06 00:22:08;;;;;;;7.18;4.20;;;20.40;99.90;;;;;;4791825;29;20058;-81
2022/09/06 00:24:36;;;;;;;8.35;4.72;;;20.50;99.90;;;;;;4808025;29;20051;-82
2022/09/06 00:27:03;;;;;;;6.05;5.07;;;20.40;99.90;;;;;;4808034;29;20495;-82
2022/09/06 00:29:28;;;;;;;6.75;4.10;;;20.40;99.90;;;;;;4807964;29;20395;-81
2022/09/06 00:31:54;;;;;;;7.35;4.50;;;20.30;99.90;;;;;;4791857;29;20480;-82
2022/09/06 00:34:20;;;;;;;8.18;4.95;;;20.30;99.90;;;;;;4792108;29;20139;-82
2022/09/06 00:36:45;;;;;;;6.97;4.70;;;20.20;99.90;;;;;;4808054;29;20107;-82
2022/09/06 00:39:11;;;;;;;8.00;4.50;;;20.20;99.90;;;;;;4791817;29;20138;-82
2022/09/06 00:41:37;;;;;;;10.57;4.78;;;20.10;99.90;;;;;;4791554;29;20047;-82
2022/09/06 00:44:03;;;;;;;8.85;4.63;;;20.10;99.90;;;;;;4791950;29;20050;-82
2022/09/06 00:46:31;;;;;;;8.48;4.60;;;20.00;99.90;;;;;;4791659;29;20449;-82
2022/09/06 00:49:12;;;;;;;9.13;4.45;;;20.00;99.90;;;;;;4807772;29;20119;-82
2022/09/06 00:51:39;;;;;;;5.90;4.70;;;20.00;99.90;;;;;;4791626;29;20050;-82
2022/09/06 00:54:06;;;;;;;8.65;5.03;;;20.00;99.90;;;;;;4791563;29;20082;-82
2022/09/06 00:56:34;;;;;;;6.22;4.85;;;19.90;99.90;;;;;;4791322;29;20087;-81
2022/09/06 00:59:00;;;;;;;6.05;5.13;;;19.80;99.90;;;;;;4791324;29;20487;-82
2022/09/06 01:01:26;;;;;;;7.95;5.20;;;19.80;99.90;;;;;;4791196;29;20465;-82
2022/09/06 01:03:53;;;;;;;6.55;4.82;;;19.70;99.90;;;;;;4791394;29;20452;-81
2022/09/06 01:06:19;;;;;;;9.00;5.35;;;19.80;99.90;;;;;;4791185;29;20062;-81
2022/09/06 01:08:50;;;;;;;6.07;4.78;;;19.80;99.90;;;;;;4807492;29;20047;-81
2022/09/06 01:11:25;;;;;;;6.03;4.63;;;19.70;99.90;;;;;;4807296;29;20483;-82
2022/09/06 01:14:08;;;;;;;6.68;4.68;;;19.60;99.90;;;;;;4807368;29;20111;-82
2022/09/06 01:17:13;;;;;;;9.68;4.90;;;19.70;99.90;;;;;;4791012;29;20058;-81
2022/09/06 01:19:54;;;;;;;8.05;4.95;;;19.60;99.90;;;;;;4789972;29;20094;-82
2022/09/06 01:22:48;;;;;;;9.98;5.22;;;19.60;99.90;;;;;;4791219;29;20112;-81
2022/09/06 01:25:35;;;;;;;10.88;6.15;;;19.50;99.90;;;;;;4807327;29;20042;-82
2022/09/06 01:28:36;;;;;;;6.90;5.00;;;19.50;99.90;;;;;;4791192;29;20483;-82
2022/09/06 01:31:01;;;;;;;7.40;5.60;;;19.40;99.90;;;;;;4790912;29;20508;-82
2022/09/06 01:34:04;;;;;;;6.72;5.45;;;19.40;99.90;;;;;;4790756;29;20095;-83
2022/09/06 01:37:01;;;;;;;7.20;4.70;;;19.40;99.90;;;;;;4790988;29;20053;-82
2022/09/06 01:39:29;;;;;;;7.15;5.30;;;19.30;99.90;;;;;;4790885;29;20050;-82
2022/09/06 01:41:59;;;;;;;7.72;5.30;;;19.40;99.90;;;;;;4790591;29;20090;-83
2022/09/06 01:44:27;;;;;;;6.32;4.90;;;19.30;99.90;;;;;;4790620;29;20059;-81
2022/09/06 01:47:12;;;;;;;8.82;5.03;;;19.30;99.90;;;;;;4790617;29;20046;-83
2022/09/06 01:49:55;;;;;;;6.55;5.30;;;19.40;99.90;;;;;;4806849;29;20058;-83
2022/09/06 01:52:28;;;;;;;;;;;19.30;99.90;;;;;;4790948;29;20051;-83
2022/09/06 01:55:00;;;;;;;;;;;19.30;99.90;;;;;;4791108;29;20396;-82
2022/09/06 01:57:29;;;;;;;7.97;5.28;;;19.30;99.90;;;;;;4790249;29;19972;-82
2022/09/06 02:00:08;;;;;;;7.10;5.00;;;19.20;99.90;;;;;;4806564;29;20047;-82
2022/09/06 02:03:07;;;;;;;5.88;5.28;;;19.20;99.90;;;;;;4790387;29;20069;-82
2022/09/06 02:05:53;;;;;;;7.65;5.63;;;19.20;99.90;;;;;;4790208;29;20377;-82
2022/09/06 02:08:35;;;;;;;7.60;5.25;;;19.20;99.90;;;;;;4790440;29;20488;-82
2022/09/06 02:11:05;;;;;;;6.32;5.28;;;19.10;99.90;;;;;;4790423;29;20138;-81
2022/09/06 02:13:38;;;;;;;8.40;5.70;;;19.10;99.90;;;;;;4790531;29;20146;-82
2022/09/06 02:16:05;;;;;;;;;;;19.20;99.90;;;;;;4790815;29;20062;-81
2022/09/06 02:18:47;;;;;;;6.93;5.68;;;19.10;99.90;;;;;;4790247;29;19932;-82
2022/09/06 02:21:17;;;;;;;8.57;5.40;;;19.10;99.90;;;;;;4806269;29;20396;-81
2022/09/06 02:23:44;;;;;;;7.55;5.75;;;19.10;99.90;;;;;;4790339;29;20055;-82
2022/09/06 02:26:16;;;;;;;5.85;5.25;;;19.00;99.90;;;;;;4790134;29;20059;-82
2022/09/06 02:28:42;;;;;;;6.90;5.00;;;19.00;99.90;;;;;;4790163;29;20078;-82
2022/09/06 02:31:35;;;;;;;8.32;5.43;;;19.00;99.90;;;;;;4790160;29;20078;-81
2022/09/06 02:34:01;;;;;;;6.68;5.97;;;19.00;99.90;;;;;;4777566;29;20055;-82
2022/09/06 02:36:30;;;;;;;7.75;5.53;;;19.00;99.90;;;;;;4790303;29;20055;-82
2022/09/06 02:38:58;;;;;;;8.15;6.22;;;19.00;99.90;;;;;;4790113;29;20057;-82
2022/09/06 02:41:24;;;;;;;7.03;5.50;;;19.00;99.90;;;;;;4790084;29;20055;-82
2022/09/06 02:43:50;;;;;;;7.18;5.63;;;18.90;99.90;;;;;;4790202;29;20075;-81
2022/09/06 02:46:16;;;;;;;6.55;5.90;;;18.90;99.90;;;;;;4790300;29;20058;-82
2022/09/06 02:48:41;;;;;;;7.97;5.55;;;18.90;99.90;;;;;;4789955;29;20459;-82
2022/09/06 02:51:08;;;;;;;7.60;5.70;;;18.80;99.90;;;;;;4790021;29;20055;-82
2022/09/06 02:53:34;;;;;;;6.55;5.47;;;18.80;99.90;;;;;;4790155;29;20415;-81
2022/09/06 02:56:01;;;;;;;6.72;6.03;;;18.90;99.90;;;;;;4789715;29;20063;-82
2022/09/06 02:58:27;;;;;;;7.60;6.00;;;18.90;99.90;;;;;;4789785;29;20119;-82
2022/09/06 03:00:53;;;;;;;6.90;5.30;;;18.90;99.90;;;;;;4789707;29;20141;-83
2022/09/06 03:03:22;;;;;;;8.20;5.85;;;18.90;99.90;;;;;;4789793;29;20138;-83
2022/09/06 03:05:49;;;;;;;7.00;5.78;;;18.80;99.90;;;;;;4789737;29;20380;-82
2022/09/06 03:08:20;;;;;;;7.68;5.90;;;18.80;99.90;;;;;;4789864;29;20096;-83
2022/09/06 03:10:55;;;;;;;8.50;6.40;;;18.80;99.90;;;;;;4805800;29;20062;-82
2022/09/06 03:13:23;;;;;;;6.75;5.43;;;18.80;99.90;;;;;;4806081;29;20054;-81
2022/09/06 03:15:50;;;;;;;7.15;5.88;;;18.70;99.90;;;;;;4789687;29;20106;-82
2022/09/06 03:18:16;;;;;;;8.85;6.03;;;18.70;99.90;;;;;;4791481;29;20134;-82
2022/09/06 03:20:41;;;;;;;6.50;5.90;;;18.70;99.90;;;;;;4809279;29;20126;-83
2022/09/06 03:23:08;;;;;;;7.32;6.63;;;18.70;99.90;;;;;;4793029;29;20047;-82
2022/09/06 03:25:34;;;;;;;7.72;6.07;;;18.70;99.90;;;;;;4809127;29;20126;-82
2022/09/06 03:28:00;;;;;;;7.07;5.63;;;18.70;99.90;;;;;;4793007;29;20191;-83
2022/09/06 03:30:26;;;;;;;8.60;6.18;;;18.60;99.90;;;;;;4793456;29;20528;-83
2022/09/06 03:32:51;;;;;;;6.95;6.25;;;18.60;99.90;;;;;;4792830;29;20055;-82
2022/09/06 03:35:17;;;;;;;7.13;6.30;;;18.60;99.90;;;;;;4792860;29;20107;-82
2022/09/06 03:37:43;;;;;;;8.63;6.07;;;18.60;99.90;;;;;;4809004;29;20176;-81
2022/09/06 03:40:09;;;;;;;7.80;6.05;;;18.60;99.90;;;;;;4792785;29;20518;-82
2022/09/06 03:42:35;;;;;;;6.82;6.13;;;18.60;99.90;;;;;;4792882;29;20039;-84
2022/09/06 03:45:00;;;;;;;6.65;5.93;;;18.60;99.90;;;;;;4792815;29;20199;-82
2022/09/06 03:47:26;;;;;;;10.40;6.57;;;18.60;99.90;;;;;;4792658;29;20115;-82
2022/09/06 03:49:52;;;;;;;7.63;6.30;;;18.60;99.90;;;;;;4792653;29;20047;-82
2022/09/06 03:52:17;;;;;;;8.25;5.93;;;18.50;99.90;;;;;;4792543;29;20055;-81
2022/09/06 03:54:43;;;;;;;7.65;6.85;;;18.50;99.90;;;;;;4792607;29;20054;-83
2022/09/06 03:57:09;;;;;;;7.28;6.22;;;18.60;99.90;;;;;;4792352;29;20380;-83
2022/09/06 03:59:35;;;;;;;7.22;6.20;;;18.60;99.90;;;;;;4792262;29;20058;-82
2022/09/06 04:02:01;;;;;;;7.72;7.00;;;18.60;99.90;;;;;;4792296;29;20055;-82
2022/09/06 04:04:27;;;;;;;7.75;6.43;;;18.50;99.90;;;;;;4808682;29;20047;-83
2022/09/06 04:06:52;;;;;;;8.60;6.57;;;18.50;99.90;;;;;;4792391;29;20051;-82
2022/09/06 04:09:18;;;;;;;8.13;6.78;;;18.50;99.90;;;;;;4792415;29;20094;-83
2022/09/06 04:11:44;;;;;;;10.07;6.97;;;18.60;99.90;;;;;;4808466;29;20054;-82
2022/09/06 04:14:09;;;;;;;7.38;6.68;;;18.60;99.90;;;;;;4792189;29;20518;-82
2022/09/06 04:16:35;;;;;;;9.45;7.00;;;18.60;99.90;;;;;;4792413;29;20066;-80
2022/09/06 04:19:02;;;;;;;7.53;6.82;;;18.60;99.90;;;;;;4792347;29;20055;-81
2022/09/06 04:21:28;;;;;;;7.63;6.75;;;18.60;99.90;;;;;;4791994;29;20066;-83
2022/09/06 04:23:54;;;;;;;7.72;6.90;;;18.60;99.90;;;;;;4808207;29;20047;-81
2022/09/06 04:26:20;;;;;;;7.68;6.63;;;18.60;99.90;;;;;;4808085;29;20115;-81
2022/09/06 04:28:46;;;;;;;8.48;7.07;;;18.60;99.90;;;;;;4791420;29;20047;-82
2022/09/06 04:31:11;;;;;;;8.07;6.82;;;18.60;99.90;;;;;;4791888;29;20043;-83
2022/09/06 04:33:37;;;;;;;9.77;6.72;;;18.60;99.90;;;;;;4792134;29;20068;-81
2022/09/06 04:36:07;;;;;;;9.45;6.95;;;18.50;99.90;;;;;;4791497;29;20046;-82
2022/09/06 04:38:38;;;;;;;7.53;6.82;;;18.60;99.90;;;;;;4791665;29;20054;-82
2022/09/06 04:41:04;;;;;;;8.40;7.45;;;18.50;99.90;;;;;;4791583;29;20058;-82
2022/09/06 04:43:30;;;;;;;9.15;7.43;;;18.60;99.90;;;;;;4791871;29;20095;-81
2022/09/06 04:46:06;;;;;;;9.00;7.93;;;18.50;99.90;;;;;;4791883;29;20050;-81
2022/09/06 04:48:31;;;;;;;12.07;7.88;;;18.50;99.90;;;;;;4791831;29;20043;-82
2022/09/06 04:50:57;;;;;;;10.85;7.93;;;18.50;99.90;;;;;;4808006;29;20050;-82
2022/09/06 04:53:23;;;;;;;9.82;8.13;;;18.40;99.90;;;;;;4807739;29;20047;-81
2022/09/06 04:55:48;;;;;;;9.40;8.40;;;18.40;99.90;;;;;;4791410;29;20066;-83
2022/09/06 04:58:14;;;;;;;10.40;8.07;;;18.30;99.90;;;;;;4791349;29;20051;-82
2022/09/06 05:00:43;;;;;;;9.43;8.52;;;18.30;99.90;;;;;;4791221;29;20146;-83
2022/09/06 05:03:09;;;;;;;9.98;8.43;;;18.20;99.90;;;;;;4791116;29;20062;-83
2022/09/06 05:05:34;;;;;;;10.77;9.40;;;18.10;99.90;;;;;;4807391;29;20098;-82
2022/09/06 05:08:00;;;;;;;10.80;9.38;;;18.10;99.90;;;;;;4807310;29;20058;-82
2022/09/06 05:10:26;;;;;;;10.40;9.35;;;18.00;99.90;;;;;;4807464;29;20042;-80
2022/09/06 05:12:53;;;;;;;10.68;9.60;;;18.00;99.90;;;;;;4791358;29;20112;-79
2022/09/06 05:15:21;;;;;;;10.65;9.50;;;17.90;99.90;;;;;;4807261;29;20142;-79
2022/09/06 05:17:47;;;;;;;10.85;9.60;;;17.80;99.90;;;;;;4790921;29;20132;-79
2022/09/06 05:20:13;;;;;;;10.55;9.55;;;17.80;99.90;;;;;;4789744;29;20583;-79
2022/09/06 05:22:40;;;;;;;11.77;10.57;;;17.80;99.90;;;;;;4790278;29;20065;-79
2022/09/06 05:25:07;;;;;;;11.75;10.25;;;17.70;99.90;;;;;;4790963;29;20094;-79
2022/09/06 05:27:33;;;;;;;13.20;10.85;;;17.60;99.90;;;;;;4790768;29;20057;-79
2022/09/06 05:29:59;;;;;;;11.27;10.18;;;17.60;99.90;;;;;;4790620;29;20142;-79
2022/09/06 05:32:25;;;;;;;12.55;10.35;;;17.50;99.90;;;;;;4790641;29;20129;-80
2022/09/06 05:34:50;;;;;;;12.88;10.98;;;17.50;99.90;;;;;;4807004;29;20133;-79
2022/09/06 05:37:16;;;;;;;11.98;10.77;;;17.50;99.90;;;;;;4807010;29;20055;-79
2022/09/06 05:39:41;;;;;;;11.20;10.05;;;17.50;99.90;;;;;;4790297;29;20051;-79
2022/09/06 05:42:07;;;;;;;13.18;11.75;;;17.50;99.90;;;;;;4789978;29;20492;-79
2022/09/06 05:44:34;;;;;;;11.70;10.60;;;17.50;99.90;;;;;;4790629;29;20054;-79
2022/09/06 05:47:00;;;;;;;13.10;11.52;;;17.40;99.90;;;;;;4790370;29;20055;-79
2022/09/06 05:49:28;;;;;;;13.10;11.65;;;17.40;99.90;;;;;;4790567;29;20058;-79
2022/09/06 05:51:53;;;;;;;12.63;11.43;;;17.20;99.90;;;;;;4790632;29;20554;-79
2022/09/06 05:54:19;;;;;;;13.40;11.27;;;17.00;99.90;;;;;;4790213;29;20137;-79
2022/09/06 05:56:45;;;;;;;12.95;11.70;;;17.00;99.90;;;;;;4806305;29;20055;-80
2022/09/06 05:59:10;;;;;;;13.32;11.10;;;17.00;99.90;;;;;;4790578;29;20110;-80
2022/09/06 06:01:36;;;;;;;11.95;10.77;;;17.00;99.90;;;;;;4790290;29;20046;-79
2022/09/06 06:04:04;;;;;;;12.45;11.25;;;17.10;99.90;;;;;;4790627;29;20051;-79
2022/09/06 06:06:32;;;;;;;13.18;11.80;;;17.00;99.90;;;;;;4790221;29;20097;-79
2022/09/06 06:08:58;;;;;;;12.95;11.70;;;17.00;99.90;;;;;;4806361;29;20560;-79
2022/09/06 06:11:25;;;;;;;12.07;10.93;;;17.10;99.90;;;;;;4790507;29;20077;-80
2022/09/06 06:13:51;;;;;;;12.68;11.38;;;17.10;99.90;;;;;;4790363;29;20488;-80
2022/09/06 06:16:19;;;;;;;12.57;11.32;;;17.10;99.90;;;;;;4790182;29;20453;-79
2022/09/06 06:18:45;;;;;;;13.13;11.82;;;17.20;99.90;;;;;;4806548;29;20042;-80
2022/09/06 06:21:14;;;;;;;12.02;10.93;;;17.20;99.90;;;;;;4790260;29;20054;-80
2022/09/06 06:23:41;;;;;;;13.45;12.10;;;17.20;99.90;;;;;;4806402;29;20058;-80
2022/09/06 06:26:08;;;;;;;13.80;12.45;;;17.20;99.90;;;;;;4790063;29;20047;-80
2022/09/06 06:28:35;;;;;;;13.30;11.90;;;17.30;99.90;;;;;;4806478;29;20498;-80
2022/09/06 06:31:05;;;;;;;15.43;12.55;;;17.30;99.90;;;;;;4790256;29;20369;-80
2022/09/06 06:33:31;;;;;;;15.45;12.13;;;17.30;99.90;;;;;;4790738;29;20376;-80
2022/09/06 06:36:02;;;;;;;13.73;12.23;;;17.30;99.90;;;;;;4806482;29;20096;-80
2022/09/06 06:38:33;;;;;;;13.05;11.75;;;17.30;99.90;;;;;;4790172;29;20499;-80
2022/09/06 06:40:59;;;;;;;13.32;12.02;;;17.30;99.90;;;;;;4790031;29;20066;-80
2022/09/06 06:43:26;;;;;;;14.07;12.73;;;17.30;99.90;;;;;;4790491;29;20051;-80
2022/09/06 06:45:52;;;;;;;14.35;12.90;;;17.30;99.90;;;;;;4806394;29;20053;-79
2022/09/06 06:48:18;;;;;;;14.93;12.80;;;17.30;99.90;;;;;;4790167;29;20062;-79
2022/09/06 06:50:44;;;;;;;16.73;13.57;;;17.30;99.90;;;;;;4789876;29;20399;-80
2022/09/06 06:53:09;;;;;;;14.07;12.68;;;17.40;99.90;;;;;;4793007;29;20082;-80
2022/09/06 06:55:35;;;;;;;13.75;12.35;;;17.40;99.90;;;;;;4809624;29;20043;-82
2022/09/06 06:58:01;;;;;;;14.02;12.60;;;17.50;99.90;;;;;;4793269;29;20123;-81
2022/09/06 07:00:26;;;;;;;13.40;12.00;;;17.50;99.90;;;;;;4809495;29;20142;-82
2022/09/06 07:02:54;;;;;;;16.35;13.15;;;17.50;99.90;;;;;;4793546;29;20499;-80
2022/09/06 07:05:20;;;;;;;16.25;13.07;;;17.50;99.90;;;;;;4793313;29;20099;-82
2022/09/06 07:07:46;;;;;;;13.25;11.95;;;17.60;99.90;;;;;;4793407;29;20062;-80
2022/09/06 07:10:12;;;;;;;14.88;13.38;;;17.60;99.90;;;;;;4787148;29;20111;-79
2022/09/06 07:12:37;;;;;;;13.93;12.55;;;17.60;99.90;;;;;;4796228;29;20448;-79
2022/09/06 07:15:03;;;;;;;16.42;13.48;;;17.70;99.90;;;;;;4775270;30;20077;-79
2022/09/06 07:17:29;;;;;;;14.18;12.60;;;17.80;99.90;;;;;;4774913;30;20059;-79
2022/09/06 07:19:55;;;;;;;15.02;13.50;;;18.00;99.90;;;;;;4775078;30;20054;-78
2022/09/06 07:22:20;;;;;;;15.27;13.77;;;18.00;99.90;;;;;;4774653;30;20495;-80
2022/09/06 07:24:46;;;;;;;14.70;13.30;;;18.20;99.90;;;;;;4774859;30;20063;-80
2022/09/06 07:27:11;;;;;;;14.95;12.90;;;18.50;99.90;;;;;;4775002;30;20137;-81
2022/09/06 07:29:37;;;;;;;16.02;13.40;;;18.80;99.90;;;;;;4774908;30;20078;-82
2022/09/06 07:32:03;;;;;;;14.40;13.10;;;19.00;99.90;;;;;;4774934;30;20499;-80
2022/09/06 07:34:28;;;;;;;14.85;13.32;;;19.10;99.90;;;;;;4774902;30;20496;-81
2022/09/06 07:36:55;;;;;;;14.73;12.70;;;19.40;99.90;;;;;;4774531;30;20104;-80
2022/09/06 07:39:21;;;;;;;15.25;13.57;;;19.60;99.90;;;;;;4777592;29;20051;-80
2022/09/06 07:41:47;;;;;;;14.27;12.88;;;19.70;99.90;;;;;;4792408;29;20046;-80
2022/09/06 07:44:13;;;;;;;14.45;12.95;;;19.80;99.90;;;;;;4792494;29;20499;-79
2022/09/06 07:46:39;;;;;;;15.25;13.75;;;19.90;99.90;;;;;;4792185;29;20115;-80
2022/09/06 07:49:05;;;;;;;15.88;14.18;;;20.00;99.90;;;;;;4792631;29;20075;-80
2022/09/06 07:51:31;;;;;;;14.68;13.30;;;20.10;99.90;;;;;;4792288;29;20111;-79
2022/09/06 07:53:57;;;;;;;14.30;12.90;;;20.20;99.90;;;;;;4808619;29;20039;-80
2022/09/06 07:56:23;;;;;;;15.27;13.77;;;20.30;99.90;;;;;;4791987;29;20063;-80
2022/09/06 07:58:50;;;;;;;15.88;14.43;;;20.50;99.90;;;;;;4792377;29;20055;-80
2022/09/06 08:01:26;;;;;;;15.65;13.65;;;20.50;99.90;;;;;;4791992;29;20055;-80
2022/09/06 08:03:52;;;;;;;14.70;13.30;;;20.60;99.90;;;;;;4791632;29;20055;-81
2022/09/06 08:06:19;;;;;;;16.88;13.70;;;20.70;99.90;;;;;;4792327;29;20049;-80
2022/09/06 08:08:45;;;;;;;16.63;13.10;;;20.90;99.90;;;;;;4808421;29;20051;-81
2022/09/06 08:11:10;;;;;;;18.30;14.10;;;20.90;99.90;;;;;;4792046;29;20071;-80
2022/09/06 08:13:36;;;;;;;15.07;13.63;;;21.00;99.90;;;;;;4792045;29;20057;-82
2022/09/06 08:16:05;;;;;;;15.77;14.05;;;21.10;99.90;;;;;;4808749;29;20103;-80
2022/09/06 08:18:31;;;;;;;15.38;13.95;;;21.20;99.90;;;;;;4791677;29;20058;-81
2022/09/06 08:21:05;;;;;;;14.32;12.95;;;21.30;99.90;;;;;;4791371;29;20176;-80
2022/09/06 08:23:31;;;;;;;17.25;15.15;;;21.40;99.90;;;;;;4805564;29;20050;-81
2022/09/06 08:25:57;;;;;;;14.50;13.18;;;21.50;99.90;;;;;;4791964;29;20047;-79
2022/09/06 08:28:23;;;;;;;16.15;14.55;;;21.60;99.90;;;;;;4791868;29;20062;-81
2022/09/06 08:30:49;;;;;;;16.25;13.60;;;21.60;99.90;;;;;;4791454;29;20065;-81
2022/09/06 08:33:16;;;;;;;15.50;13.70;;;21.70;99.90;;;;;;4791704;29;20047;-80
2022/09/06 08:35:42;;;;;;;14.98;13.68;;;21.90;99.90;;;;;;4791525;29;20503;-80
2022/09/06 08:38:07;;;;;;;14.70;13.35;;;22.00;99.90;;;;;;4791745;29;20058;-80
2022/09/06 08:40:33;;;;;;;14.50;13.00;;;22.20;99.90;;;;;;4791601;29;20043;-79
2022/09/06 08:42:59;;;;;;;15.77;14.13;;;22.20;99.90;;;;;;4807696;29;20180;-80
2022/09/06 08:45:25;;;;;;;18.15;14.18;;;22.20;99.90;;;;;;4791560;29;20516;-81
2022/09/06 08:47:51;;;;;;;15.63;14.02;;;22.20;99.90;;;;;;4791901;29;20538;-80
2022/09/06 08:50:18;;;;;;;14.82;13.27;;;22.20;99.90;;;;;;4791272;29;20043;-81
2022/09/06 08:52:49;;;;;;;14.48;13.00;;;22.40;99.90;;;;;;4807746;29;20057;-83
2022/09/06 08:55:28;;;;;;;14.30;12.77;;;22.50;99.90;;;;;;4791035;29;20172;-81
2022/09/06 08:57:59;;;;;;;15.35;13.75;;;22.50;99.90;;;;;;4788466;29;20067;-82
2022/09/06 09:00:25;;;;;;;15.73;14.30;;;22.50;99.90;;;;;;4791225;29;20051;-82
2022/09/06 09:03:05;;;;;;;15.30;13.70;;;22.60;99.90;;;;;;4790736;29;20551;-82
2022/09/06 09:05:34;;;;;;;17.67;14.35;;;22.70;99.90;;;;;;4806860;29;20055;-85
2022/09/06 09:08:26;;;;;;;15.98;14.25;;;22.90;99.90;;;;;;4807098;29;20058;-82
2022/09/06 09:11:03;;;;;;;22.03;14.63;;;22.90;99.90;;;;;;4790026;29;20051;-82
2022/09/06 09:13:31;;;;;;;14.60;13.20;;;22.90;99.90;;;;;;4790818;29;20046;-81
2022/09/06 09:15:57;;;;;;;13.82;12.63;;;23.10;99.90;;;;;;4788341;29;20039;-81
2022/09/06 09:18:36;;;;;;;13.95;12.65;;;23.30;99.90;;;;;;4790494;29;20054;-82
2022/09/06 09:21:02;;;;;;;15.18;13.68;;;23.40;99.90;;;;;;4790305;29;20091;-82
2022/09/06 09:23:29;;;;;;;14.10;12.70;;;23.40;99.90;;;;;;4790267;29;20046;-83
2022/09/06 09:26:01;;;;;;;13.98;12.57;;;23.40;99.90;;;;;;4790364;29;20054;-82
2022/09/06 09:28:26;;;;;;;15.10;13.60;;;23.40;99.90;;;;;;4806563;29;20488;-82
2022/09/06 09:30:55;;;;;;;14.88;13.35;;;23.40;99.90;;;;;;4783857;29;20057;-83
2022/09/06 09:33:20;;;;;;;15.20;13.20;;;23.50;99.90;;;;;;4780804;29;20047;-81
2022/09/06 09:35:47;;;;;;;14.55;13.05;;;23.40;99.90;;;;;;4788152;29;20106;-82
2022/09/06 09:38:29;;;;;;;14.32;12.57;;;23.40;99.90;;;;;;4790299;29;20055;-82
2022/09/06 09:40:59;;;;;;;13.73;12.30;;;23.60;99.90;;;;;;4789771;29;20503;-82
2022/09/06 09:43:55;;;;;;;12.82;11.63;;;23.70;99.90;;;;;;4806833;29;20054;-83
2022/09/06 09:46:21;;;;;;;13.10;11.80;;;23.90;99.90;;;;;;4790792;29;20080;-82
2022/09/06 09:49:01;;;;;;;13.25;11.85;;;24.00;99.90;;;;;;4806825;29;20043;-83
2022/09/06 09:51:29;;;;;;;13.65;11.48;;;24.00;99.90;;;;;;4790236;29;20059;-82
2022/09/06 09:53:57;;;;;;;12.80;11.60;;;24.00;99.90;;;;;;4790234;29;20051;-82
2022/09/06 09:56:46;;;;;;;12.35;10.77;;;24.00;99.90;;;;;;4790065;29;20063;-82
2022/09/06 09:59:22;;;;;;;13.57;11.57;;;24.20;99.90;;;;;;4785261;29;20067;-83
2022/09/06 10:01:48;;;;;;;12.75;10.98;;;24.40;99.90;;;;;;4790109;29;20078;-82
2022/09/06 10:04:23;;;;;;;13.00;11.88;;;24.60;99.90;;;;;;4790167;29;20090;-83
2022/09/06 10:06:48;;;;;;;13.25;11.45;;;24.50;99.90;;;;;;4790353;29;20065;-81
2022/09/06 10:09:29;;;;;;;12.05;10.70;;;24.40;99.90;;;;;;4806281;29;20441;-81
2022/09/06 10:11:57;;;;;;;12.30;11.15;;;24.40;99.90;;;;;;4790089;29;20043;-81
2022/09/06 10:14:27;;;;;;;12.85;11.52;;;24.50;99.90;;;;;;4790192;29;20137;-82
2022/09/06 10:16:53;;;;;;;13.65;11.95;;;24.60;99.90;;;;;;4790189;29;20055;-84
2022/09/06 10:19:37;;;;;;;12.73;10.07;;;24.80;99.90;;;;;;4790006;29;20059;-82
2022/09/06 10:22:12;;;;;;;11.18;10.07;;;25.10;99.90;;;;;;4789999;29;20063;-83
2022/09/06 10:25:07;;;;;;;10.88;9.50;;;25.20;99.90;;;;;;4790134;29;20054;-83
2022/09/06 10:27:33;;;;;;;15.30;10.70;;;25.30;99.90;;;;;;4792802;29;20126;-83
2022/09/06 10:30:07;;;;;;;12.98;11.68;;;25.50;99.90;;;;;;4796155;29;20138;-82
2022/09/06 10:32:41;;;;;;;13.15;11.32;;;25.50;99.90;;;;;;4795866;29;20135;-81
2022/09/06 10:35:23;;;;;;;15.02;12.32;;;25.60;99.90;;;;;;4795876;29;20042;-82
2022/09/06 10:38:12;;;;;;;13.82;11.95;;;25.60;99.90;;;;;;4795835;29;20062;-82
2022/09/06 10:41:16;;;;;;;12.98;11.25;;;25.80;99.90;;;;;;4795577;29;20522;-83
2022/09/06 10:43:56;;;;;;;16.77;12.40;;;25.80;99.90;;;;;;4795770;29;20054;-81
2022/09/06 10:46:25;;;;;;;12.43;11.15;;;25.90;99.90;;;;;;4795694;29;20107;-81
2022/09/06 10:48:52;;;;;;;13.05;10.95;;;26.10;99.90;;;;;;4795758;29;20111;-82
2022/09/06 10:51:53;;;;;;;13.43;12.02;;;26.20;99.90;;;;;;4812261;29;20042;-82
2022/09/06 10:54:23;;;;;;;13.32;12.00;;;26.20;99.90;;;;;;4795668;29;20051;-82
2022/09/06 10:56:54;;;;;;;13.98;12.23;;;26.20;99.90;;;;;;4811740;29;20066;-81
2022/09/06 10:59:37;;;;;;;15.97;10.83;;;26.30;99.90;;;;;;4795495;29;20057;-82
2022/09/06 11:02:25;;;;;;;12.68;11.48;;;26.30;99.90;;;;;;4795541;29;20315;-82
2022/09/06 11:04:51;;;;;;;17.83;11.38;;;26.40;99.90;;;;;;4796091;29;20046;-83
2022/09/06 11:07:50;;;;;;;10.45;9.52;;;26.20;99.90;;;;;;4812092;29;20116;-82
2022/09/06 11:10:22;;;;;;;11.80;10.70;;;26.50;99.90;;;;;;4781385;29;20123;-82
2022/09/06 11:13:17;;;;;;;10.98;9.13;;;26.50;99.00;;;;;;4795654;29;20107;-83
2022/09/06 11:15:48;;;;;;;11.27;9.57;;;26.60;99.40;;;;;;4825966;29;20054;-84
2022/09/06 11:18:37;;;;;;;12.80;9.13;;;26.70;99.90;;;;;;4795411;29;20042;-84
2022/09/06 11:21:30;;;;;;;9.02;8.07;;;27.00;99.40;;;;;;4811812;29;20058;-82
2022/09/06 11:24:21;;;;;;;11.60;8.77;;;27.00;99.80;;;;;;4811792;29;20094;-84
2022/09/06 11:27:11;;;;;;;10.55;8.45;;;26.90;99.20;;;;;;4811932;29;20062;-82
2022/09/06 11:29:41;;;;;;;10.80;9.68;;;27.00;98.50;;;;;;4795336;29;20111;-85
2022/09/06 11:32:36;;;;;;;11.55;9.13;;;27.20;99.40;;;;;;4795587;29;20054;-84
2022/09/06 11:35:26;;;;;;;11.13;8.65;;;27.10;98.00;;;;;;4795212;29;20082;-83
2022/09/06 11:38:19;;;;;;;8.93;7.97;;;27.00;98.30;;;;;;4794327;29;20129;-84
2022/09/06 11:40:48;;;;;;;10.18;7.45;;;26.90;97.30;;;;;;4792557;29;20072;-84
2022/09/06 11:44:03;;;;;;;9.52;7.85;;;27.00;98.60;;;;;;4792358;29;20424;-82
2022/09/06 11:46:35;;;;;;;8.48;7.57;;;27.10;98.60;;;;;;4789722;29;20496;-83
2022/09/06 11:49:26;;;;;;;10.20;7.45;;;27.10;97.60;;;;;;4808689;29;20115;-84
2022/09/06 11:51:52;;;;;;;8.02;7.22;;;27.20;97.60;;;;;;4808828;29;20047;-83
2022/09/06 11:54:17;;;;;;;9.18;7.50;;;27.30;98.00;;;;;;4792187;29;20522;-84
2022/09/06 11:56:54;;;;;;;7.28;6.68;;;27.30;97.90;;;;;;4791996;29;20111;-82
2022/09/06 11:59:32;;;;;;;8.40;6.00;;;27.30;97.00;;;;;;4808653;29;20088;-83
2022/09/06 12:02:01;;;;;;;6.85;6.10;;;27.30;97.70;;;;;;4808201;29;20184;-84
2022/09/06 12:05:06;;;;;;;7.30;5.93;;;27.30;97.20;;;;;;4792329;29;20057;-84
2022/09/06 12:07:37;;;;;;;7.03;6.32;;;27.50;97.00;;;;;;4779594;29;20115;-84
2022/09/06 12:10:28;;;;;;;7.38;6.22;;;27.60;97.30;;;;;;4790232;29;20042;-82
2022/09/06 12:12:55;;;;;;;9.30;6.85;;;27.60;96.50;;;;;;4790800;29;20055;-85
2022/09/06 12:15:43;;;;;;;8.35;6.65;;;27.70;97.20;;;;;;4791278;29;20087;-86
2022/09/06 12:18:29;;;;;;;8.75;6.63;;;27.70;96.90;;;;;;4808308;29;20062;-82
2022/09/06 12:20:55;;;;;;;8.27;6.63;;;27.60;96.70;;;;;;4791850;29;20090;-85
2022/09/06 12:23:36;;;;;;;8.73;6.65;;;27.70;96.40;;;;;;4808421;29;20074;-84
2022/09/06 12:26:07;;;;;;;7.50;6.80;;;27.70;97.20;;;;;;4791910;29;20057;-87
2022/09/06 12:28:43;;;;;;;8.15;7.32;;;27.70;96.90;;;;;;4791824;29;20418;-85
2022/09/06 12:31:21;;;;;;;8.65;7.55;;;27.80;96.50;;;;;;4808275;29;20057;-84
2022/09/06 12:33:47;;;;;;;10.82;7.35;;;27.90;95.40;;;;;;4792097;29;20057;-84
2022/09/06 12:36:18;;;;;;;8.20;7.03;;;27.90;96.80;;;;;;4792082;29;20050;-83
2022/09/06 12:38:56;;;;;;;8.25;7.45;;;28.00;96.50;;;;;;4792053;29;20050;-84
2022/09/06 12:41:23;;;;;;;10.30;7.20;;;27.90;95.40;;;;;;4791891;29;20047;-90
2022/09/06 12:43:49;;;;;;;8.88;7.25;;;28.00;96.50;;;;;;4791586;29;20146;-87
2022/09/06 12:46:15;;;;;;;9.50;6.72;;;28.10;96.30;;;;;;4791527;29;20112;-85
2022/09/06 12:48:43;;;;;;;8.10;6.97;;;28.00;96.30;;;;;;4791785;29;20063;-85
2022/09/06 12:51:19;;;;;;;8.73;7.75;;;28.00;96.50;;;;;;4791103;29;20050;-85
2022/09/06 12:53:58;;;;;;;9.38;7.10;;;27.90;95.70;;;;;;4791480;29;20063;-86
2022/09/06 12:56:25;;;;;;;7.90;7.07;;;28.00;95.40;;;;;;4791334;29;20133;-86